CheckWX is a tool to help pilots better visualize weather data.  It is not intended as a substitute for an official pre-flight weather briefing.

17:24:28 UTC

KPQN METAR
Pipestone Municipal Airport
Pipestone, Minnesota, USA
Current

26 mins ago

KPQN 181658Z AUTO 08004KT 2SM HZ CLR 28/23 A2972 RMK AO2 VIS 1 1/4V3
Observed
Jul-18 @ 16:58 UTC
Wind
  • 080° at 4 KTS
Visibility
2 SM
Flight Rules
IFR
Conditions
Haze
Cloud Levels
  • Clear skies
Temperature
28°C / 82°F
Dewpoint
23°C / 73°F
Heat Index
31°C / 87°F
Humidity
74%
Altimeter
29.72" Hg
Pressure
1006.42 hPa
Previous

45 mins ago

KPQN 181639Z AUTO 21003KT 3SM HZ CLR 27/23 A2973 RMK AO2
Observed
Jul-18 @ 16:39 UTC
Wind
  • 210° at 3 KTS
Visibility
3 SM
Flight Rules
MVFR
Conditions
Haze
Cloud Levels
  • Clear skies
Temperature
27°C / 81°F
Dewpoint
23°C / 73°F
Heat Index
30°C / 86°F
Humidity
79%
Altimeter
29.73" Hg
Pressure
1006.82 hPa
Previous

49 mins ago

KPQN 181635Z AUTO 21004KT 1 1/2SM HZ VV007 27/23 A2973 RMK AO2 VIS 3/4V5
Observed
Jul-18 @ 16:35 UTC
Wind
  • 210° at 4 KTS
Visibility
1 1/2 SM
Flight Rules
LIFR
Conditions
Haze
Cloud Levels
  • Vertical visibility at 700' AGL
Temperature
27°C / 81°F
Dewpoint
23°C / 73°F
Heat Index
30°C / 86°F
Humidity
79%
Altimeter
29.73" Hg
Pressure
1006.82 hPa